Time;durP1;ratioP1;P1;durP2;ratioP2;P2;SDS_P1;SDS_P2;PMS_P1;PMS_P2;Temp;Humidity;BMP_temperature;BMP_pressure;BME280_temperature;BME280_humidity;BME280_pressure;Samples;Min_cycle;Max_cycle;Signal;HPM_P1;HPM_P2
2021/08/07 00:01:52;;;;;;;2.78;1.25;;;15.30;79.70;;;;;;5154807;27;20044;-72
2021/08/07 00:04:17;;;;;;;4.95;1.50;;;15.30;79.80;;;;;;5158714;27;20026;-71
2021/08/07 00:06:43;;;;;;;3.40;1.23;;;15.20;79.80;;;;;;5158958;27;20034;-72
2021/08/07 00:09:08;;;;;;;5.68;1.65;;;15.30;79.90;;;;;;5159121;27;20030;-72
2021/08/07 00:11:34;;;;;;;2.95;1.40;;;15.30;79.70;;;;;;5158864;27;20030;-72
2021/08/07 00:14:00;;;;;;;10.27;2.08;;;15.40;79.60;;;;;;5158865;27;20023;-72
2021/08/07 00:16:25;;;;;;;3.97;1.63;;;15.40;79.20;;;;;;5158561;27;20037;-72
2021/08/07 00:18:51;;;;;;;6.93;1.70;;;15.40;79.10;;;;;;5158726;27;20022;-72
2021/08/07 00:21:16;;;;;;;2.55;1.02;;;15.40;79.00;;;;;;5158617;27;20034;-72
2021/08/07 00:23:42;;;;;;;4.25;1.80;;;15.30;79.40;;;;;;5158610;27;20431;-71
2021/08/07 00:26:08;;;;;;;3.55;1.30;;;15.30;79.50;;;;;;5158498;27;20101;-72
2021/08/07 00:28:33;;;;;;;6.07;1.60;;;15.30;79.40;;;;;;5158508;27;20067;-72
2021/08/07 00:30:59;;;;;;;5.85;1.30;;;15.20;79.30;;;;;;5158487;27;20075;-72
2021/08/07 00:33:24;;;;;;;4.05;1.40;;;15.30;79.60;;;;;;5158397;27;20030;-73
2021/08/07 00:35:50;;;;;;;5.70;1.70;;;15.20;79.60;;;;;;5139846;27;20035;-72
2021/08/07 00:38:15;;;;;;;3.53;1.40;;;15.30;79.50;;;;;;5158327;27;20022;-72
2021/08/07 00:40:41;;;;;;;6.82;1.77;;;15.30;79.40;;;;;;5158473;27;20059;-72
2021/08/07 00:43:10;;;;;;;2.05;1.10;;;15.30;79.40;;;;;;5158207;27;20371;-72
2021/08/07 00:45:37;;;;;;;4.88;1.40;;;15.30;79.40;;;;;;5158095;27;20398;-72
2021/08/07 00:48:05;;;;;;;4.18;1.40;;;15.30;79.30;;;;;;5158278;27;20027;-72
2021/08/07 00:50:31;;;;;;;3.72;1.85;;;15.30;79.30;;;;;;5157921;27;20046;-72
2021/08/07 00:52:56;;;;;;;4.25;1.65;;;15.10;79.60;;;;;;5158164;27;20023;-72
2021/08/07 00:55:22;;;;;;;5.18;1.40;;;15.10;79.80;;;;;;5157914;27;20039;-72
2021/08/07 00:57:48;;;;;;;4.70;1.20;;;15.10;79.70;;;;;;5157984;27;20023;-72
2021/08/07 01:00:13;;;;;;;4.38;1.70;;;15.20;79.80;;;;;;5157835;27;20022;-72
2021/08/07 01:02:43;;;;;;;3.60;1.33;;;15.20;79.70;;;;;;5157985;27;20077;-72
2021/08/07 01:05:23;;;;;;;5.57;1.15;;;15.30;79.70;;;;;;5157637;27;20067;-72
2021/08/07 01:08:17;;;;;;;4.35;1.50;;;15.20;79.80;;;;;;5139370;27;20022;-72
2021/08/07 01:10:49;;;;;;;6.32;2.00;;;15.20;79.80;;;;;;5157802;27;20037;-72
2021/08/07 01:13:23;;;;;;;4.22;1.35;;;15.20;79.80;;;;;;5157081;27;20026;-72
2021/08/07 01:16:11;;;;;;;6.63;1.30;;;15.20;80.00;;;;;;5157521;27;20037;-72
2021/08/07 01:18:39;;;;;;;4.85;1.60;;;15.10;79.80;;;;;;5157579;27;20091;-72
2021/08/07 01:21:08;;;;;;;4.15;1.20;;;15.10;80.20;;;;;;5157479;27;20379;-72
2021/08/07 01:23:49;;;;;;;3.95;1.20;;;15.10;80.20;;;;;;5157407;27;20490;-72
2021/08/07 01:26:18;;;;;;;4.00;1.42;;;15.20;80.00;;;;;;5157309;27;20050;-72
2021/08/07 01:28:46;;;;;;;3.10;1.02;;;15.20;79.80;;;;;;5157311;27;20057;-72
2021/08/07 01:31:15;;;;;;;5.68;1.65;;;15.10;79.80;;;;;;5157368;27;20022;-72
2021/08/07 01:33:42;;;;;;;2.50;1.25;;;15.10;80.00;;;;;;5157080;27;20025;-72
2021/08/07 01:36:08;;;;;;;4.55;1.27;;;15.10;79.90;;;;;;5157113;27;20126;-72
2021/08/07 01:38:36;;;;;;;6.82;1.38;;;15.00;80.10;;;;;;5157069;27;20054;-72
2021/08/07 01:41:03;;;;;;;2.38;1.30;;;15.00;80.10;;;;;;5157168;27;20395;-72
2021/08/07 01:43:29;;;;;;;7.00;1.83;;;15.00;80.30;;;;;;5157094;27;20014;-72
2021/08/07 01:45:54;;;;;;;3.22;1.25;;;15.00;80.70;;;;;;5157033;27;20497;-72
2021/08/07 01:48:26;;;;;;;3.67;1.30;;;15.00;80.70;;;;;;5138261;27;20034;-72
2021/08/07 01:51:00;;;;;;;5.40;1.42;;;14.90;80.90;;;;;;5156829;27;20152;-73
2021/08/07 01:53:28;;;;;;;7.43;1.60;;;14.90;80.90;;;;;;5156776;27;20098;-72
2021/08/07 01:56:09;;;;;;;5.22;1.30;;;15.00;80.70;;;;;;5156675;27;20035;-72
2021/08/07 01:58:40;;;;;;;6.00;1.50;;;15.00;80.40;;;;;;5156649;27;20089;-72
2021/08/07 02:01:06;;;;;;;4.05;1.40;;;15.00;80.10;;;;;;5156714;27;20022;-72
2021/08/07 02:03:33;;;;;;;3.97;1.17;;;15.00;80.00;;;;;;5156673;27;20549;-72
2021/08/07 02:06:00;;;;;;;3.20;1.10;;;15.10;80.90;;;;;;5156638;27;20033;-73
2021/08/07 02:08:26;;;;;;;3.75;1.10;;;15.00;79.80;;;;;;5137987;27;20015;-73
2021/08/07 02:10:51;;;;;;;6.28;1.60;;;15.10;79.80;;;;;;5156453;27;20049;-72
2021/08/07 02:13:19;;;;;;;2.47;1.40;;;15.10;79.70;;;;;;5156511;27;20091;-73
2021/08/07 02:15:47;;;;;;;7.18;2.50;;;15.10;79.70;;;;;;5156200;27;20470;-72
2021/08/07 02:18:18;;;;;;;2.70;1.90;;;15.20;79.50;;;;;;5156286;27;20023;-73
2021/08/07 02:20:44;;;;;;;3.10;1.80;;;15.10;79.40;;;;;;5156373;27;20101;-72
2021/08/07 02:23:14;;;;;;;3.25;1.60;;;15.20;79.20;;;;;;5156365;27;20161;-72
2021/08/07 02:25:41;;;;;;;6.85;1.65;;;15.20;79.00;;;;;;5155134;27;20130;-72
2021/08/07 02:28:06;;;;;;;4.18;1.08;;;15.20;79.10;;;;;;5155937;27;20019;-73
2021/08/07 02:30:33;;;;;;;3.45;1.27;;;15.20;78.90;;;;;;5137252;27;20037;-72
2021/08/07 02:32:59;;;;;;;2.92;1.20;;;15.10;79.10;;;;;;5156165;27;20064;-73
2021/08/07 02:35:24;;;;;;;4.20;1.20;;;15.10;79.20;;;;;;5155836;27;20022;-72
2021/08/07 02:37:51;;;;;;;3.33;1.20;;;15.10;79.10;;;;;;5155942;27;20022;-72
2021/08/07 02:40:17;;;;;;;4.68;1.42;;;15.10;79.10;;;;;;5155880;27;20027;-73
2021/08/07 02:42:43;;;;;;;6.97;1.35;;;15.20;79.00;;;;;;5155802;27;20079;-73
2021/08/07 02:45:09;;;;;;;4.55;1.20;;;15.10;79.00;;;;;;5155888;27;20139;-72
2021/08/07 02:47:36;;;;;;;3.45;1.10;;;15.10;79.00;;;;;;5157466;27;20101;-72
2021/08/07 02:50:04;;;;;;;6.45;1.40;;;15.20;78.90;;;;;;5159371;27;20018;-72
2021/08/07 02:52:31;;;;;;;4.95;1.23;;;15.20;78.50;;;;;;5157393;27;20048;-72
2021/08/07 02:54:57;;;;;;;5.38;1.38;;;15.10;78.50;;;;;;5156022;27;20031;-72
2021/08/07 02:57:23;;;;;;;4.53;1.42;;;15.20;78.30;;;;;;5155542;27;20406;-72
2021/08/07 02:59:49;;;;;;;4.38;1.23;;;15.20;78.40;;;;;;5155570;27;20018;-72
2021/08/07 03:02:14;;;;;;;3.15;1.02;;;15.20;78.50;;;;;;5155546;27;20026;-72
2021/08/07 03:04:40;;;;;;;3.63;1.23;;;15.20;78.80;;;;;;5155452;27;20022;-72
2021/08/07 03:07:05;;;;;;;4.72;1.20;;;15.10;79.00;;;;;;5155499;27;20475;-72
2021/08/07 03:09:31;;;;;;;4.00;1.35;;;15.10;78.80;;;;;;5155474;27;20550;-72
2021/08/07 03:11:56;;;;;;;6.13;1.60;;;15.10;78.70;;;;;;5155275;27;20029;-72
2021/08/07 03:14:22;;;;;;;4.93;1.20;;;15.20;79.20;;;;;;5155124;27;20030;-72
2021/08/07 03:16:48;;;;;;;4.13;1.35;;;15.20;78.30;;;;;;5155230;27;20033;-73
2021/08/07 03:19:13;;;;;;;3.15;1.10;;;15.10;78.50;;;;;;5155250;27;20015;-72
2021/08/07 03:21:39;;;;;;;1.77;1.00;;;15.10;78.60;;;;;;5155156;27;20470;-72
2021/08/07 03:24:05;;;;;;;2.83;1.35;;;15.10;78.60;;;;;;5155112;27;20030;-72
2021/08/07 03:26:31;;;;;;;3.63;1.20;;;15.10;78.40;;;;;;5155053;27;20422;-72
2021/08/07 03:28:56;;;;;;;2.95;0.98;;;15.10;78.70;;;;;;5155216;27;20023;-72
2021/08/07 03:31:22;;;;;;;3.10;1.08;;;15.10;79.00;;;;;;5154907;27;20026;-72
2021/08/07 03:33:47;;;;;;;4.75;1.60;;;15.00;78.80;;;;;;5155123;27;20019;-72
2021/08/07 03:36:13;;;;;;;3.65;1.58;;;15.00;78.80;;;;;;5154580;27;20474;-71
2021/08/07 03:38:38;;;;;;;7.03;1.55;;;15.00;78.90;;;;;;5154880;27;20122;-72
2021/08/07 03:41:04;;;;;;;4.50;1.45;;;15.00;79.10;;;;;;5154967;27;20026;-72
2021/08/07 03:43:29;;;;;;;4.75;1.20;;;15.00;79.10;;;;;;5154899;27;20023;-72
2021/08/07 03:45:55;;;;;;;2.85;1.00;;;15.00;79.10;;;;;;5154834;27;20058;-72
2021/08/07 03:48:21;;;;;;;4.20;0.88;;;15.00;79.20;;;;;;5154611;27;20026;-72
2021/08/07 03:50:46;;;;;;;3.55;1.55;;;15.00;79.30;;;;;;5154683;27;20051;-72
2021/08/07 03:53:12;;;;;;;5.60;1.17;;;15.00;79.40;;;;;;5154723;27;20030;-72
2021/08/07 03:55:38;;;;;;;4.05;1.30;;;15.00;79.30;;;;;;5154551;27;20042;-72
2021/08/07 03:58:03;;;;;;;4.70;1.52;;;15.10;79.30;;;;;;5154842;27;20030;-72
2021/08/07 04:00:31;;;;;;;3.33;1.25;;;15.00;79.30;;;;;;5154588;27;20023;-72
2021/08/07 04:02:58;;;;;;;3.55;1.77;;;15.00;79.30;;;;;;5154873;27;20438;-71
2021/08/07 04:05:23;;;;;;;7.00;3.22;;;15.00;79.60;;;;;;5154677;27;20030;-71
2021/08/07 04:07:49;;;;;;;7.72;3.10;;;15.00;79.40;;;;;;5154575;27;20467;-72
2021/08/07 04:10:16;;;;;;;5.47;2.67;;;14.90;79.50;;;;;;5154612;27;20121;-72
2021/08/07 04:12:42;;;;;;;3.97;1.75;;;14.90;79.60;;;;;;5154614;27;20490;-72
2021/08/07 04:15:08;;;;;;;5.38;2.22;;;14.80;79.90;;;;;;5154453;27;20039;-72
2021/08/07 04:17:38;;;;;;;3.97;1.48;;;14.80;79.90;;;;;;5154820;27;20027;-72
2021/08/07 04:20:07;;;;;;;9.15;1.52;;;14.90;79.80;;;;;;5154554;27;20027;-72
2021/08/07 04:22:33;;;;;;;7.18;1.15;;;14.80;79.60;;;;;;5154456;27;20052;-72
2021/08/07 04:24:58;;;;;;;4.20;1.40;;;14.90;79.50;;;;;;5154335;27;20019;-72
2021/08/07 04:27:24;;;;;;;3.08;1.20;;;14.90;79.40;;;;;;5154382;27;20060;-72
2021/08/07 04:29:50;;;;;;;4.15;1.30;;;15.00;79.40;;;;;;5154456;27;20044;-72
2021/08/07 04:32:16;;;;;;;1.90;1.10;;;14.90;79.50;;;;;;5154272;27;20098;-72
2021/08/07 04:34:42;;;;;;;5.78;1.15;;;14.90;79.90;;;;;;5154261;27;20409;-72
2021/08/07 04:37:08;;;;;;;4.97;1.63;;;14.90;79.90;;;;;;5154279;27;20023;-72
2021/08/07 04:39:33;;;;;;;3.33;1.30;;;15.00;79.90;;;;;;5154320;27;20056;-72
2021/08/07 04:41:59;;;;;;;2.55;1.27;;;15.00;79.40;;;;;;5154284;27;20080;-72
2021/08/07 04:44:25;;;;;;;3.42;1.13;;;15.10;79.20;;;;;;5154087;27;20019;-72
2021/08/07 04:46:50;;;;;;;6.43;1.63;;;15.10;79.10;;;;;;5154140;27;20114;-71
2021/08/07 04:49:16;;;;;;;4.38;1.20;;;15.20;78.90;;;;;;5156481;27;20064;-71
2021/08/07 04:51:41;;;;;;;3.88;1.30;;;15.20;78.40;;;;;;5157903;27;20086;-72
2021/08/07 04:54:07;;;;;;;5.22;1.35;;;15.20;78.50;;;;;;5157901;27;20027;-72
2021/08/07 04:56:32;;;;;;;4.22;1.42;;;15.30;78.30;;;;;;5157583;27;20046;-72
2021/08/07 04:58:58;;;;;;;4.68;1.27;;;15.30;78.40;;;;;;5157814;27;20490;-72
2021/08/07 05:01:23;;;;;;;6.32;1.55;;;15.20;78.40;;;;;;5157734;27;20079;-73
2021/08/07 05:03:49;;;;;;;1.85;1.13;;;15.20;78.30;;;;;;5157761;27;20053;-72
2021/08/07 05:06:14;;;;;;;5.60;1.10;;;15.20;78.40;;;;;;5138675;27;20459;-72
2021/08/07 05:08:40;;;;;;;5.95;1.35;;;15.20;78.30;;;;;;5157642;27;20033;-73
2021/08/07 05:11:05;;;;;;;2.83;1.38;;;15.20;78.30;;;;;;5157581;27;20094;-71
2021/08/07 05:13:33;;;;;;;4.00;1.30;;;15.20;78.40;;;;;;5157516;27;20027;-73
2021/08/07 05:15:59;;;;;;;2.42;1.00;;;15.20;78.40;;;;;;5157445;27;20076;-73
2021/08/07 05:18:25;;;;;;;5.53;1.60;;;15.30;78.40;;;;;;5157360;27;20499;-73
2021/08/07 05:20:50;;;;;;;4.43;1.23;;;15.40;78.10;;;;;;5157401;27;20069;-72
2021/08/07 05:23:16;;;;;;;3.40;1.50;;;15.50;77.70;;;;;;5157410;27;20027;-73
2021/08/07 05:25:41;;;;;;;4.47;1.08;;;15.60;78.20;;;;;;5157359;27;20083;-73
2021/08/07 05:28:07;;;;;;;3.28;1.15;;;15.70;76.80;;;;;;5157191;27;20077;-72
2021/08/07 05:30:32;;;;;;;3.58;1.08;;;15.70;76.70;;;;;;5157246;27;20023;-73
2021/08/07 05:32:58;;;;;;;5.55;1.45;;;15.70;76.50;;;;;;5157084;27;20023;-72
2021/08/07 05:35:24;;;;;;;4.82;1.30;;;15.80;76.10;;;;;;5156950;27;20035;-72
2021/08/07 05:37:49;;;;;;;3.33;1.13;;;15.80;76.00;;;;;;5157148;27;20023;-72
2021/08/07 05:40:15;;;;;;;6.93;1.00;;;15.80;76.20;;;;;;5156813;27;20019;-72
2021/08/07 05:42:41;;;;;;;3.05;1.45;;;15.90;76.40;;;;;;5156975;27;20018;-72
2021/08/07 05:45:07;;;;;;;2.67;1.20;;;15.90;75.90;;;;;;5156926;27;20011;-72
2021/08/07 05:47:33;;;;;;;3.50;1.00;;;16.00;75.90;;;;;;5156796;27;20027;-72
2021/08/07 05:49:59;;;;;;;2.85;1.30;;;16.00;75.70;;;;;;5156722;27;20501;-73
2021/08/07 05:52:26;;;;;;;4.25;1.55;;;16.10;75.50;;;;;;5156764;27;20042;-72
2021/08/07 05:54:52;;;;;;;1.80;1.02;;;16.20;74.60;;;;;;5156627;27;20027;-72
2021/08/07 05:57:17;;;;;;;7.47;1.70;;;16.20;74.40;;;;;;5156779;27;20031;-72
2021/08/07 05:59:43;;;;;;;6.65;1.63;;;16.30;74.20;;;;;;5156579;27;20033;-72
2021/08/07 06:02:09;;;;;;;4.25;1.00;;;16.30;74.00;;;;;;5156477;27;20023;-72
2021/08/07 06:04:34;;;;;;;3.35;1.30;;;16.40;75.00;;;;;;5156463;27;20022;-72
2021/08/07 06:07:00;;;;;;;3.75;1.30;;;16.50;74.00;;;;;;5156415;27;20026;-72
2021/08/07 06:09:26;;;;;;;2.65;1.20;;;16.60;72.80;;;;;;5156616;27;20022;-72
2021/08/07 06:11:51;;;;;;;2.58;1.00;;;16.60;72.90;;;;;;5160080;27;20059;-72
2021/08/07 06:14:17;;;;;;;2.13;0.80;;;16.80;72.80;;;;;;5157031;27;20075;-72
2021/08/07 06:16:42;;;;;;;3.38;1.33;;;17.00;72.50;;;;;;5137966;27;20039;-72
2021/08/07 06:19:08;;;;;;;3.08;1.58;;;17.10;72.50;;;;;;5165995;27;20027;-72
2021/08/07 06:21:33;;;;;;;4.13;1.48;;;17.20;72.30;;;;;;5156227;27;20038;-72
2021/08/07 06:23:59;;;;;;;4.05;1.60;;;17.30;72.00;;;;;;5156313;27;20019;-73
2021/08/07 06:26:25;;;;;;;2.63;1.50;;;17.30;72.30;;;;;;5158910;27;20023;-73
2021/08/07 06:28:52;;;;;;;4.57;1.42;;;17.20;71.90;;;;;;5156298;27;20063;-72
2021/08/07 06:31:17;;;;;;;2.55;1.23;;;17.20;71.50;;;;;;5155921;27;20033;-72
2021/08/07 06:33:43;;;;;;;4.75;1.48;;;17.20;70.90;;;;;;5155861;27;20027;-72
2021/08/07 06:36:09;;;;;;;4.90;1.30;;;17.40;71.00;;;;;;5155839;27;20035;-72
2021/08/07 06:38:35;;;;;;;4.72;1.33;;;17.50;70.70;;;;;;5155979;27;20025;-72
2021/08/07 06:41:01;;;;;;;3.97;1.27;;;17.50;70.10;;;;;;5155740;27;20559;-72
2021/08/07 06:43:27;;;;;;;2.10;1.20;;;17.70;69.30;;;;;;5136697;27;20033;-72
2021/08/07 06:45:52;;;;;;;6.43;1.23;;;17.70;68.90;;;;;;5154148;27;20027;-72
2021/08/07 06:48:18;;;;;;;6.53;1.60;;;17.80;68.70;;;;;;5154831;27;20371;-72
2021/08/07 06:50:44;;;;;;;4.85;1.48;;;17.90;69.00;;;;;;5155195;27;20047;-72
2021/08/07 06:53:09;;;;;;;3.67;1.50;;;17.90;69.20;;;;;;5155334;27;20010;-72
2021/08/07 06:55:35;;;;;;;4.78;1.20;;;18.00;69.30;;;;;;5155008;27;20039;-71
2021/08/07 06:58:00;;;;;;;5.93;1.35;;;18.10;69.80;;;;;;5155248;27;20023;-72
2021/08/07 07:00:27;;;;;;;2.17;1.00;;;18.10;69.80;;;;;;5155126;27;20047;-72
2021/08/07 07:02:52;;;;;;;2.53;1.00;;;18.20;69.80;;;;;;5155233;27;20033;-72
2021/08/07 07:05:18;;;;;;;2.03;1.33;;;18.20;69.60;;;;;;5155200;27;20463;-71
2021/08/07 07:07:43;;;;;;;3.33;1.00;;;18.20;69.20;;;;;;5155144;27;20413;-72
2021/08/07 07:10:12;;;;;;;8.45;2.20;;;18.30;68.90;;;;;;5155199;27;20018;-72
2021/08/07 07:12:38;;;;;;;2.88;1.15;;;18.30;68.40;;;;;;5154461;27;20721;-72
2021/08/07 07:15:05;;;;;;;9.40;1.45;;;18.20;70.00;;;;;;5136276;27;20077;-73
2021/08/07 07:17:30;;;;;;;3.22;1.30;;;18.30;70.10;;;;;;5155003;27;20023;-72
2021/08/07 07:19:57;;;;;;;1.55;0.80;;;18.30;69.00;;;;;;5154815;27;20015;-71
2021/08/07 07:22:23;;;;;;;5.18;1.08;;;18.40;68.20;;;;;;5154987;27;20022;-71
2021/08/07 07:24:49;;;;;;;6.40;1.55;;;18.40;67.80;;;;;;5154875;27;20046;-71
2021/08/07 07:27:15;;;;;;;4.63;1.45;;;18.40;66.80;;;;;;5154907;27;20083;-71
2021/08/07 07:29:41;;;;;;;3.58;1.40;;;18.50;67.10;;;;;;5154543;27;20378;-72
2021/08/07 07:32:09;;;;;;;3.38;1.42;;;18.50;67.20;;;;;;5154902;27;20072;-72
2021/08/07 07:34:35;;;;;;;3.65;1.10;;;18.60;66.50;;;;;;5154794;27;20098;-72
2021/08/07 07:37:01;;;;;;;4.82;1.00;;;18.70;66.70;;;;;;5154892;27;20102;-72
2021/08/07 07:39:26;;;;;;;3.00;1.15;;;18.70;66.60;;;;;;5154726;27;20415;-73
2021/08/07 07:41:52;;;;;;;4.55;1.17;;;18.80;66.80;;;;;;5154560;27;20027;-72
2021/08/07 07:44:17;;;;;;;4.10;1.58;;;18.90;66.80;;;;;;5154705;27;20143;-72
2021/08/07 07:46:43;;;;;;;2.40;1.10;;;18.90;66.80;;;;;;5154533;27;20063;-73
2021/08/07 07:49:09;;;;;;;14.27;2.10;;;18.90;67.00;;;;;;5154663;27;20050;-73
2021/08/07 07:51:35;;;;;;;22.00;2.63;;;19.00;68.20;;;;;;5153920;27;20153;-74
2021/08/07 07:54:00;;;;;;;4.47;1.45;;;19.00;68.60;;;;;;5154486;27;20023;-75
2021/08/07 07:56:26;;;;;;;2.28;0.90;;;19.00;67.40;;;;;;5154333;27;20436;-75
2021/08/07 07:58:51;;;;;;;3.50;1.27;;;19.00;65.30;;;;;;5154278;27;20021;-75
2021/08/07 08:01:17;;;;;;;5.28;0.90;;;18.90;65.90;;;;;;5154038;27;20029;-75
2021/08/07 08:03:43;;;;;;;4.78;1.38;;;18.90;65.90;;;;;;5154089;27;20404;-75
2021/08/07 08:06:09;;;;;;;4.30;1.20;;;18.90;64.50;;;;;;5153908;27;20105;-75
2021/08/07 08:08:35;;;;;;;5.03;1.33;;;18.90;64.10;;;;;;5154158;27;20019;-75
2021/08/07 08:11:00;;;;;;;5.00;0.88;;;18.90;64.80;;;;;;5153982;27;20057;-75
2021/08/07 08:13:26;;;;;;;4.57;1.30;;;18.70;65.10;;;;;;5153751;27;20391;-75
2021/08/07 08:15:52;;;;;;;4.30;1.27;;;18.60;66.30;;;;;;5153476;27;20041;-75
2021/08/07 08:18:17;;;;;;;4.30;1.52;;;18.50;67.80;;;;;;5153696;27;20101;-75
2021/08/07 08:20:43;;;;;;;4.85;1.23;;;18.30;70.30;;;;;;5153700;27;20026;-76
2021/08/07 08:23:09;;;;;;;6.47;1.70;;;18.20;69.60;;;;;;5154528;27;20030;-75
2021/08/07 08:25:35;;;;;;;3.05;1.35;;;18.10;69.80;;;;;;5158017;27;20025;-76
2021/08/07 08:28:01;;;;;;;2.50;1.52;;;18.00;69.60;;;;;;5158014;27;20019;-76
2021/08/07 08:30:27;;;;;;;3.85;1.42;;;18.00;71.90;;;;;;5158056;27;20026;-76
2021/08/07 08:32:53;;;;;;;3.50;1.83;;;17.90;69.70;;;;;;5158079;27;20106;-76
2021/08/07 08:35:19;;;;;;;5.15;1.50;;;17.90;71.80;;;;;;5139374;27;20043;-74
2021/08/07 08:37:45;;;;;;;4.35;1.50;;;17.90;73.60;;;;;;5157930;27;20025;-73
2021/08/07 08:40:11;;;;;;;4.90;1.40;;;17.80;71.30;;;;;;5157934;27;20041;-75
2021/08/07 08:42:37;;;;;;;3.50;1.48;;;17.70;72.80;;;;;;5157649;27;20076;-75
2021/08/07 08:45:04;;;;;;;5.47;1.80;;;17.70;71.70;;;;;;5158001;27;20136;-73
2021/08/07 08:47:30;;;;;;;2.78;1.33;;;17.70;72.90;;;;;;5157764;27;20023;-73
2021/08/07 08:49:55;;;;;;;2.75;1.33;;;17.70;73.10;;;;;;5157611;27;20520;-73
2021/08/07 08:52:28;;;;;;;4.80;1.55;;;17.70;72.10;;;;;;5157511;27;20043;-73
2021/08/07 08:54:54;;;;;;;2.53;1.10;;;17.60;71.20;;;;;;5157600;27;20408;-74
2021/08/07 08:57:20;;;;;;;3.38;1.30;;;17.60;71.20;;;;;;5157608;27;20125;-76
2021/08/07 08:59:46;;;;;;;4.65;1.42;;;17.70;72.50;;;;;;5157591;27;20463;-77
2021/08/07 09:02:12;;;;;;;3.08;1.58;;;17.80;74.70;;;;;;5157209;27;20026;-73
2021/08/07 09:04:38;;;;;;;2.42;1.40;;;17.80;76.00;;;;;;5138776;27;20503;-73
2021/08/07 09:07:04;;;;;;;3.15;1.73;;;17.90;77.10;;;;;;5157375;27;20042;-73
2021/08/07 09:09:38;;;;;;;2.70;1.50;;;18.00;77.80;;;;;;5157106;27;20467;-73
2021/08/07 09:12:05;;;;;;;5.05;1.75;;;18.00;77.80;;;;;;5157351;27;20026;-74
2021/08/07 09:14:36;;;;;;;4.60;1.70;;;18.00;77.60;;;;;;5157197;27;20023;-76
2021/08/07 09:17:06;;;;;;;9.27;1.50;;;18.00;78.30;;;;;;5156675;27;20103;-74
2021/08/07 09:19:41;;;;;;;2.88;1.40;;;18.10;77.90;;;;;;5156934;27;20390;-73
2021/08/07 09:22:17;;;;;;;5.38;1.60;;;18.10;77.10;;;;;;5160044;27;20382;-73
2021/08/07 09:25:16;;;;;;;2.42;1.63;;;18.20;77.80;;;;;;5159257;27;20116;-73
2021/08/07 09:27:50;;;;;;;3.22;1.60;;;18.30;77.90;;;;;;5157312;27;20384;-74
2021/08/07 09:30:19;;;;;;;2.80;1.50;;;18.50;77.90;;;;;;5138031;27;20055;-74
2021/08/07 09:32:56;;;;;;;3.63;1.52;;;18.60;77.80;;;;;;5156620;27;20019;-75
2021/08/07 09:35:24;;;;;;;4.28;1.98;;;18.70;77.60;;;;;;5156051;27;20476;-73
2021/08/07 09:38:09;;;;;;;2.67;1.77;;;18.80;77.20;;;;;;5156888;27;20410;-71
2021/08/07 09:40:57;;;;;;;5.85;2.13;;;18.80;72.50;;;;;;5156609;27;20128;-72
2021/08/07 09:43:34;;;;;;;4.28;1.50;;;18.70;73.60;;;;;;5156577;27;20027;-72
2021/08/07 09:46:09;;;;;;;4.28;1.30;;;18.50;68.20;;;;;;5156872;27;20030;-72
2021/08/07 09:48:41;;;;;;;6.32;1.58;;;18.60;65.10;;;;;;5156565;27;20030;-72
2021/08/07 09:51:18;;;;;;;2.40;1.30;;;18.50;66.40;;;;;;5156531;27;20039;-72
2021/08/07 09:53:45;;;;;;;3.20;1.60;;;18.50;64.60;;;;;;5156608;27;20029;-72
2021/08/07 09:56:11;;;;;;;2.40;1.20;;;18.50;65.70;;;;;;5156456;27;20102;-71
2021/08/07 09:58:37;;;;;;;2.20;1.17;;;18.50;65.60;;;;;;5156354;27;20027;-71
2021/08/07 10:01:04;;;;;;;4.28;1.20;;;18.40;64.50;;;;;;5156604;27;20035;-72
2021/08/07 10:03:32;;;;;;;1.70;1.20;;;18.40;65.50;;;;;;5155985;27;20019;-71
2021/08/07 10:06:21;;;;;;;6.78;1.30;;;18.30;65.40;;;;;;5156212;27;20376;-72
2021/08/07 10:08:49;;;;;;;3.45;1.38;;;18.30;64.70;;;;;;5156091;27;20011;-72
2021/08/07 10:11:15;;;;;;;1.70;1.17;;;18.40;64.10;;;;;;5156039;27;20050;-71
2021/08/07 10:13:41;;;;;;;2.75;1.27;;;18.50;65.00;;;;;;5156239;27;20054;-72
2021/08/07 10:16:07;;;;;;;4.20;1.33;;;18.60;63.70;;;;;;5137356;27;20042;-72
2021/08/07 10:18:33;;;;;;;2.42;0.93;;;18.60;63.20;;;;;;5137313;27;20071;-72
2021/08/07 10:21:03;;;;;;;4.85;1.40;;;18.70;63.60;;;;;;5155886;27;20070;-72
2021/08/07 10:23:32;;;;;;;1.13;1.02;;;18.80;64.20;;;;;;5155976;27;20098;-71
2021/08/07 10:25:58;;;;;;;3.17;1.25;;;18.90;66.10;;;;;;5156138;27;20045;-72
2021/08/07 10:28:26;;;;;;;2.00;1.20;;;18.90;67.00;;;;;;5156059;27;20482;-73
2021/08/07 10:30:54;;;;;;;4.70;1.55;;;19.00;68.00;;;;;;5155645;27;20367;-73
2021/08/07 10:33:24;;;;;;;2.97;1.58;;;19.00;69.10;;;;;;5155764;27;20085;-73
2021/08/07 10:35:50;;;;;;;3.65;1.52;;;19.10;69.60;;;;;;5155511;27;20035;-73
2021/08/07 10:38:16;;;;;;;2.00;1.50;;;19.00;69.30;;;;;;5155561;27;20047;-72
2021/08/07 10:40:41;;;;;;;2.90;1.27;;;19.00;69.40;;;;;;5155620;27;20426;-74
2021/08/07 10:43:07;;;;;;;2.90;1.50;;;19.00;69.60;;;;;;5155608;27;20023;-72
2021/08/07 10:45:33;;;;;;;1.65;1.27;;;19.10;69.90;;;;;;5155099;27;20029;-72
2021/08/07 10:47:59;;;;;;;1.58;0.93;;;19.10;70.00;;;;;;5155130;27;20403;-72
2021/08/07 10:50:24;;;;;;;2.58;1.30;;;19.10;70.40;;;;;;5155149;27;20055;-72
2021/08/07 10:53:02;;;;;;;1.90;1.20;;;19.10;71.10;;;;;;5155231;27;20478;-73
2021/08/07 10:55:46;;;;;;;3.50;1.30;;;19.10;71.90;;;;;;5155094;27;20019;-73
2021/08/07 10:58:31;;;;;;;1.95;1.23;;;19.10;72.10;;;;;;5155269;27;20050;-72
2021/08/07 11:01:19;;;;;;;5.03;1.48;;;19.00;72.30;;;;;;5136334;27;20053;-72
2021/08/07 11:03:50;;;;;;;3.60;1.60;;;19.00;73.10;;;;;;5154997;27;20025;-73
2021/08/07 11:06:17;;;;;;;4.30;1.70;;;19.00;73.80;;;;;;5154935;27;20015;-72
2021/08/07 11:08:46;;;;;;;1.40;1.05;;;18.90;74.20;;;;;;5155071;27;20026;-72
2021/08/07 11:11:31;;;;;;;2.47;1.23;;;18.90;74.70;;;;;;5154749;27;20019;-73
2021/08/07 11:14:21;;;;;;;2.55;1.60;;;18.90;74.70;;;;;;5154952;27;20411;-72
2021/08/07 11:17:05;;;;;;;3.10;1.13;;;18.90;74.90;;;;;;5154971;27;20031;-73
2021/08/07 11:19:56;;;;;;;3.42;1.27;;;19.00;74.90;;;;;;5154956;27;20083;-73
2021/08/07 11:22:37;;;;;;;3.78;1.60;;;19.00;75.20;;;;;;5154628;27;20019;-73
2021/08/07 11:25:17;;;;;;;5.25;1.60;;;19.00;75.80;;;;;;5155058;27;20019;-73
2021/08/07 11:30:20;;;;;;;3.65;1.55;;;18.90;76.90;;;;;;5154809;27;20057;-73
2021/08/07 11:33:00;;;;;;;4.25;1.58;;;18.80;78.60;;;;;;5154815;27;20050;-73
2021/08/07 11:38:10;;;;;;;1.67;1.20;;;18.60;79.00;;;;;;5154720;27;20100;-74
2021/08/07 11:40:47;;;;;;;2.95;1.60;;;18.60;79.20;;;;;;5154747;27;20018;-77
2021/08/07 11:43:32;;;;;;;2.47;1.60;;;18.70;79.40;;;;;;5154458;27;20382;-73
2021/08/07 11:45:59;;;;;;;2.08;1.30;;;18.70;79.50;;;;;;5154614;27;20522;-73
2021/08/07 11:48:34;;;;;;;5.72;1.95;;;18.80;79.70;;;;;;5154606;27;20382;-78
2021/08/07 11:51:05;;;;;;;2.47;1.65;;;18.90;79.80;;;;;;5154399;27;20058;-76
2021/08/07 11:53:32;;;;;;;2.03;1.30;;;18.90;79.20;;;;;;5154347;27;20022;-76
2021/08/07 11:56:03;;;;;;;5.47;1.70;;;18.90;78.90;;;;;;5154496;27;20027;-75
2021/08/07 11:58:29;;;;;;;4.65;1.80;;;19.00;78.70;;;;;;5159434;27;20018;-76
2021/08/07 12:01:00;;;;;;;2.92;1.73;;;19.00;77.70;;;;;;5161378;27;20019;-77
2021/08/07 12:03:26;;;;;;;3.50;1.70;;;19.00;77.50;;;;;;5161341;27;20022;-77
2021/08/07 12:05:57;;;;;;;4.68;2.00;;;19.00;77.40;;;;;;5161438;27;20482;-76
2021/08/07 12:08:31;;;;;;;4.63;1.52;;;19.00;77.60;;;;;;5161248;27;20030;-77
2021/08/07 12:10:59;;;;;;;4.95;1.80;;;19.00;77.80;;;;;;5161136;27;20026;-73
2021/08/07 12:13:33;;;;;;;4.90;1.60;;;19.00;77.70;;;;;;5160874;27;20011;-74
2021/08/07 12:16:02;;;;;;;3.60;1.35;;;19.00;76.40;;;;;;5142393;27;20066;-72
2021/08/07 12:18:39;;;;;;;3.13;1.42;;;18.90;73.00;;;;;;5160902;27;20099;-72
2021/08/07 12:21:04;;;;;;;3.88;1.33;;;18.90;72.00;;;;;;5160951;27;20019;-73
2021/08/07 12:23:44;;;;;;;3.95;1.63;;;18.80;71.40;;;;;;5161043;27;20046;-72
2021/08/07 12:26:10;;;;;;;3.88;1.65;;;18.80;72.30;;;;;;5161043;27;20123;-72
2021/08/07 12:28:36;;;;;;;3.28;1.52;;;18.80;73.40;;;;;;5161030;27;20023;-72
2021/08/07 12:31:02;;;;;;;5.28;1.48;;;18.80;74.50;;;;;;5160734;27;20447;-72
2021/08/07 12:33:48;;;;;;;6.53;1.70;;;18.80;73.50;;;;;;5160719;27;20023;-72
2021/08/07 12:36:14;;;;;;;;;;;18.70;71.50;;;;;;5142242;27;20043;-73
2021/08/07 12:38:43;;;;;;;6.18;1.40;;;18.60;71.00;;;;;;5160702;27;19955;-71
2021/08/07 12:41:09;;;;;;;3.83;1.10;;;18.50;70.80;;;;;;5160750;27;20026;-70
2021/08/07 12:43:36;;;;;;;6.30;1.83;;;18.50;72.40;;;;;;5160836;27;20019;-70
2021/08/07 12:46:07;;;;;;;6.10;1.40;;;18.50;73.20;;;;;;5160932;27;20027;-70
2021/08/07 12:48:57;;;;;;;2.38;1.63;;;18.50;72.80;;;;;;5160768;27;20086;-70
2021/08/07 12:51:32;;;;;;;4.35;2.05;;;18.60;72.70;;;;;;5160304;27;20437;-71
2021/08/07 12:54:03;;;;;;;5.93;1.92;;;18.60;73.60;;;;;;5142187;27;20109;-76
2021/08/07 12:56:31;;;;;;;9.48;1.90;;;18.50;72.40;;;;;;5142123;27;20065;-73
2021/08/07 12:59:05;;;;;;;4.80;1.65;;;18.40;73.90;;;;;;5142080;27;20482;-72